Latest Weather Observations for Flinders Island Airport

IDT60801

Issued at 4:01 am EDT Wednesday 19 February 2020 (issued every 10 minutes, with the page automatically refreshed every 10 minutes)

About weather observations | Map of weather stations | Latest weather observations for TAS | Other Formats
Station Details ID: 099005 Name: FLINDERS ISLAND AIRPORT Lat: -40.09 Lon: 148.00 Height: 9.0 m
Data from the previous 72 hours. | See also: Recent months at Flinders Island Airport
Date/Time
EDT
Temp
°C
App
Temp
°C
Dew
Point
°C
Rel
Hum
%
Delta-T
°C
Wind Press
QNH
hPa
Press
MSL
hPa
Rain since
9am
mm
Dir  Spd
km/h
Gust
km/h
Spd
kts
Gust
kts
19/04:00am 13.4 7.0 13.2 99 0.1 S 39 56 21 30 1001.4 1001.4 58.8
19/03:30am 13.5 8.3 13.3 99 0.1 S 33 56 18 30 1001.6 1001.6 58.2
19/03:12am 13.6 9.0 13.4 99 0.1 S 30 48 16 26 1001.7 1001.7 57.2
19/03:00am 13.8 8.9 13.6 99 0.1 S 32 46 17 25 1001.8 1001.8 56.8
19/02:30am 13.9 8.8 13.7 99 0.1 S 33 63 18 34 1001.6 1001.6 56.4
19/02:00am 14.6 9.1 13.6 94 0.6 S 35 54 19 29 1001.9 1001.9 56.2
19/01:59am 14.6 9.1 13.6 94 0.6 S 35 54 19 29 1002.0 1002.0 56.2
19/01:30am 15.0 10.5 13.9 93 0.6 S 30 43 16 23 1002.0 1002.0 56.2
19/01:00am 15.1 10.1 13.3 89 1.0 S 32 50 17 27 1001.7 1001.7 56.2
19/12:58am 15.1 10.1 13.3 89 1.0 S 32 50 17 27 1001.7 1001.7 56.2
19/12:30am 15.1 10.4 13.3 89 1.0 S 30 44 16 24 1001.5 1001.5 56.2
19/12:26am 15.1 10.5 13.6 91 0.8 S 30 48 16 26 1001.5 1001.5 56.2
19/12:00am 15.3 9.9 13.8 91 0.8 S 35 50 19 27 1001.5 1001.5 56.2
 
Date/Time
EDT
Temp
°C
App
Temp
°C
Dew
Point
°C
Rel
Hum
%
Delta-T
°C
Wind Press
QNH
hPa
Press
MSL
hPa
Rain since
9am
mm
Dir  Spd
km/h
Gust
km/h
Spd
kts
Gust
kts
18/11:46pm 15.5 11.0 13.9 90 0.9 S 30 54 16 29 1001.0 1001.0 56.2
18/11:30pm 15.2 12.6 14.9 98 0.2 S 22 32 12 17 1000.7 1000.7 56.2
18/11:00pm 14.9 12.7 14.3 96 0.3 S 19 33 10 18 1000.9 1000.9 56.2
18/10:30pm 14.8 11.6 14.3 97 0.3 S 24 39 13 21 1000.9 1000.9 56.2
18/10:00pm 14.7 12.3 14.5 99 0.1 SE 20 37 11 20 1001.1 1001.1 56.2
18/09:30pm 14.1 7.6 14.1 100 0.0 SSE 41 67 22 36 1000.4 1000.4 56.2
18/09:26pm 14.1 7.2 14.1 100 0.0 SSE 43 67 23 36 1000.2 1000.2 55.8
18/09:19pm 14.3 8.6 14.3 100 0.0 S 37 61 20 33 1002.2 1002.2 55.4
18/09:16pm 14.5 8.9 14.5 100 0.0 S 37 48 20 26 1003.7 1003.7 55.2
18/09:00pm 14.4 8.4 14.4 100 0.0 SSW 39 50 21 27 1006.0 1006.0 54.0
18/08:44pm 14.5 8.5 14.5 100 0.0 S 39 57 21 31 1004.9 1004.9 52.8
18/08:30pm 14.3 7.5 14.3 100 0.0 S 43 57 23 31 1004.5 1004.5 51.8
18/08:00pm 14.1 5.9 14.1 100 0.0 SSW 50 59 27 32 1004.9 1004.9 47.4
18/07:31pm 14.4 5.9 14.4 100 0.0 SSW 52 61 28 33 1004.7 1004.7 40.6
18/07:30pm 14.3 5.8 14.3 100 0.0 SSW 52 61 28 33 1004.6 1004.6 40.0
18/07:00pm 14.7 5.9 14.5 99 0.1 SW 54 78 29 42 1003.3 1003.3 30.0
18/06:58pm 14.9 6.9 14.7 99 0.1 SW 50 78 27 42 1003.6 1003.6 28.6
18/06:53pm 15.6 11.1 15.4 99 0.1 SW 33 61 18 33 1003.7 1003.7 25.0
18/06:52pm 15.7 11.4 15.5 99 0.1 SW 32 56 17 30 1003.8 1003.8 24.2
18/06:49pm 15.9 12.8 15.7 99 0.1 SSW 26 48 14 26 1003.5 1003.5 23.4
18/06:30pm 15.2 14.0 15.0 99 0.1 S 15 26 8 14 1001.6 1001.6 23.2
18/06:00pm 15.3 14.1 15.1 99 0.1 ESE 15 28 8 15 1002.5 1002.5 22.4
18/05:30pm 15.4 13.9 15.2 99 0.1 ESE 17 33 9 18 1001.8 1001.8 21.8
18/05:18pm 15.5 14.4 15.3 99 0.1 ESE 15 32 8 17 1001.4 1001.4 21.8
18/05:06pm 15.3 14.5 15.1 99 0.1 SE 13 22 7 12 1001.6 1001.6 21.8
18/05:05pm 15.2 14.4 15.0 99 0.1 SE 13 19 7 10 1001.6 1001.6 21.8
18/05:00pm 15.2 14.4 15.0 99 0.1 SE 13 24 7 13 1002.1 1002.1 21.6
18/04:55pm 15.1 13.5 14.9 99 0.1 ESE 17 28 9 15 1002.9 1002.9 21.2
18/04:46pm 15.4 13.5 15.2 99 0.1 ESE 19 30 10 16 1003.4 1003.4 16.0
18/04:30pm 15.5 13.4 15.3 99 0.1 SE 20 35 11 19 1003.2 1003.2 13.6
18/04:19pm 15.6 12.1 15.4 99 0.1 S 28 50 15 27 1004.6 1004.6 6.6
18/04:11pm 16.3 14.2 14.8 91 0.9 SE 19 33 10 18 1004.5 1004.5 2.0
18/04:00pm 17.2 14.5 14.7 85 1.4 E 22 43 12 23 1003.5 1003.5 0.2
18/03:47pm 17.5 13.5 14.2 81 1.9 E 28 50 15 27 1003.3 1003.3 0.2
18/03:30pm 17.7 14.1 14.2 80 2.0 E 26 46 14 25 1003.3 1003.3 0.2
18/03:29pm 17.5 13.5 14.0 80 2.0 E 28 46 15 25 1003.4 1003.4 0.2
18/03:00pm 17.9 13.9 14.0 78 2.2 E 28 46 15 25 1003.9 1003.9 0.2
18/02:35pm 18.7 13.3 13.8 73 2.8 E 35 54 19 29 1004.1 1004.1 0.2
18/02:30pm 18.7 13.3 14.0 74 2.7 E 35 52 19 28 1004.0 1004.0 0.2
18/02:00pm 18.0 13.3 13.3 74 2.7 E 30 48 16 26 1004.9 1004.9 0.2
18/01:38pm 18.2 12.9 13.1 72 2.9 E 33 52 18 28 1005.3 1005.3 0.2
18/01:30pm 19.3 14.3 13.5 69 3.3 E 32 46 17 25 1005.5 1005.5 0.2
18/01:03pm 18.9 13.9 13.3 70 3.2 ESE 32 54 17 29 1005.6 1005.6 0.2
18/01:00pm 18.7 13.7 13.3 71 3.1 ESE 32 46 17 25 1005.8 1005.8 0.2
18/12:35pm 18.4 14.3 13.7 74 2.7 ESE 28 48 15 26 1006.8 1006.8 0.2
18/12:30pm 18.3 14.6 13.8 75 2.6 ESE 26 44 14 24 1006.9 1006.9 0.2
18/12:00pm 17.4 14.9 13.5 78 2.2 ESE 19 32 10 17 1008.4 1008.4 0.2
18/11:30am 17.3 14.6 13.6 79 2.1 ESE 20 32 11 17 1008.6 1008.6 0.2
18/11:00am 17.0 14.0 13.7 81 1.9 E 22 33 12 18 1008.2 1008.2 0.2
18/10:30am 18.9 15.2 12.6 67 3.5 E 24 37 13 20 1007.9 1007.9 0.0
18/10:00am 19.0 15.3 12.7 67 3.5 E 24 39 13 21 1008.4 1008.4 0.0
18/09:30am 17.2 13.1 11.5 69 3.1 E 24 35 13 19 1008.3 1008.3 0.0
18/09:00am 17.0 12.7 11.9 72 2.8 E 26 41 14 22 1008.3 1008.3 0.0
18/08:30am 17.0 13.4 11.9 72 2.8 E 22 33 12 18 1008.4 1008.4 0.0
18/08:00am 16.6 14.0 12.0 74 2.5 E 17 28 9 15 1008.7 1008.7 0.0
18/07:30am 16.3 12.3 11.7 74 2.5 E 24 33 13 18 1008.9 1008.9 0.0
18/07:00am 15.9 13.5 11.5 75 2.4 E 15 26 8 14 1008.6 1008.6 0.0
18/06:30am 15.7 13.6 11.3 75 2.4 E 13 24 7 13 1009.0 1009.0 0.0
18/06:00am 15.5 14.2 11.1 75 2.4 ESE 9 17 5 9 1009.2 1009.2 0.0
18/05:30am 14.6 12.8 11.0 79 1.9 E 11 17 6 9 1009.7 1009.7 0.0
18/05:00am 14.2 13.1 10.6 79 1.9 E 7 11 4 6 1009.7 1009.7 0.0
18/04:30am 13.6 12.0 10.2 80 1.8 ESE 9 13 5 7 1009.9 1009.9 0.0
18/04:00am 12.8 10.8 10.3 85 1.3 E 11 15 6 8 1010.3 1010.3 0.0
18/03:30am 12.3 10.2 9.7 84 1.3 ENE 11 13 6 7 1010.9 1010.9 0.0
18/03:00am 12.0 9.5 9.7 86 1.2 E 13 15 7 8 1011.3 1011.3 0.0
18/02:30am 12.8 10.4 10.2 84 1.3 E 13 17 7 9 1012.0 1012.0 0.0
18/02:00am 13.3 11.7 10.1 81 1.7 E 9 15 5 8 1012.1 1012.1 0.0
18/01:30am 12.1 10.3 9.5 84 1.3 ESE 9 13 5 7 1012.4 1012.4 0.0
18/01:00am 13.3 11.4 10.5 83 1.5 ENE 11 13 6 7 1012.9 1012.9 0.0
18/12:30am 12.2 10.5 9.9 86 1.2 ENE 9 11 5 6 1012.9 1012.9 0.0
18/12:00am 13.4 11.5 10.6 83 1.5 ENE 11 15 6 8 1013.1 1013.1 0.0
 
Date/Time
EDT
Temp
°C
App
Temp
°C
Dew
Point
°C
Rel
Hum
%
Delta-T
°C
Wind Press
QNH
hPa
Press
MSL
hPa
Rain since
9am
mm
Dir  Spd
km/h
Gust
km/h
Spd
kts
Gust
kts
17/11:30pm 13.9 11.6 10.3 79 1.9 E 13 17 7 9 1013.4 1013.4 0.0
17/11:00pm 12.8 11.1 9.8 82 1.5 ENE 9 15 5 8 1013.6 1013.6 0.0
17/10:30pm 14.0 11.9 9.6 75 2.3 ENE 11 15 6 8 1014.0 1014.0 0.0
17/10:00pm 14.5 12.7 9.3 71 2.7 E 9 11 5 6 1014.0 1014.0 0.0
17/09:30pm 14.6 12.1 8.3 66 3.2 E 11 15 6 8 1014.2 1014.2 0.0
17/09:00pm 14.0 11.4 7.8 66 3.1 E 11 15 6 8 1014.0 1014.0 0.0
17/08:30pm 14.2 11.6 7.7 65 3.2 E 11 17 6 9 1013.8 1013.8 0.0
17/08:00pm 16.0 13.1 8.0 59 4.0 E 13 26 7 14 1013.7 1013.7 0.0
17/07:30pm 16.9 13.2 7.8 55 4.6 E 17 26 9 14 1013.5 1013.5 0.0
17/07:00pm 17.8 14.1 8.1 53 5.0 E 17 26 9 14 1013.4 1013.4 0.0
17/06:30pm 18.3 14.6 8.0 51 5.3 E 17 26 9 14 1013.5 1013.5 0.0
17/06:00pm 18.8 14.7 8.5 51 5.3 E 20 30 11 16 1013.5 1013.5 0.0
17/05:30pm 19.0 15.5 8.6 51 5.4 ESE 17 26 9 14 1013.6 1013.6 0.0
17/05:00pm 19.3 15.3 8.3 49 5.7 E 19 28 10 15 1013.8 1013.8 0.0
17/04:30pm 19.4 15.8 8.4 49 5.7 E 17 28 9 15 1013.9 1013.9 0.0
17/04:00pm 19.6 15.8 8.9 50 5.6 E 19 28 10 15 1014.0 1014.0 0.0
17/03:30pm 20.1 16.7 9.1 49 5.8 E 17 28 9 15 1014.3 1014.3 0.0
17/03:00pm 20.1 16.0 8.8 48 5.9 E 20 33 11 18 1014.6 1014.6 0.0
17/02:30pm 21.3 17.8 10.2 49 6.0 E 19 32 10 17 1014.7 1014.7 0.0
17/02:00pm 19.9 15.6 9.2 50 5.6 E 22 33 12 18 1014.9 1014.9 0.0
17/01:30pm 20.7 17.1 9.9 50 5.8 ESE 19 30 10 16 1015.3 1015.3 0.0
17/01:00pm 19.3 15.9 9.2 52 5.3 ESE 17 26 9 14 1015.7 1015.7 0.0
17/12:30pm 19.3 15.8 8.9 51 5.4 ESE 17 32 9 17 1016.0 1016.0 0.0
17/12:00pm 19.3 16.2 8.9 51 5.4 E 15 24 8 13 1016.4 1016.4 0.0
17/11:30am 19.6 15.7 8.6 49 5.7 E 19 30 10 16 1016.7 1016.7 0.0
17/11:00am 19.4 14.6 8.7 50 5.6 ENE 24 32 13 17 1016.9 1016.9 0.0
17/10:30am 18.3 14.2 8.8 54 4.9 E 20 32 11 17 1017.0 1017.0 0.0
17/10:00am 18.4 14.4 9.2 55 4.8 ESE 20 28 11 15 1017.0 1017.0 0.0
17/09:30am 17.4 13.6 9.1 58 4.3 E 19 30 10 16 1017.3 1017.3 0.0
17/09:00am 17.9 14.2 10.0 60 4.2 ESE 20 32 11 17 1017.5 1017.5 0.0
17/08:30am 16.7 13.9 10.1 65 3.5 E 15 24 8 13 1017.6 1017.6 0.0
17/08:00am 16.3 14.0 10.6 69 3.0 E 13 19 7 10 1017.5 1017.5 0.0
17/07:30am 14.9 12.5 9.9 72 2.6 E 13 24 7 13 1017.3 1017.3 0.0
17/07:00am 12.4 9.2 8.5 77 1.9 E 15 20 8 11 1017.2 1017.2 0.0
17/06:30am 14.3 11.6 8.9 70 2.7 E 13 24 7 13 1017.1 1017.1 0.0
17/06:00am 14.7 12.3 9.9 73 2.5 ESE 13 20 7 11 1016.9 1016.9 0.0
17/05:30am 14.4 11.6 10.0 75 2.3 ESE 15 24 8 13 1017.0 1017.0 0.0
17/05:00am 11.4 9.6 9.3 87 1.1 ESE 9 15 5 8 1017.0 1017.0 0.0
17/04:30am 11.4 9.4 8.6 83 1.4 ESE 9 11 5 6 1017.2 1017.2 0.0
17/04:00am 12.2 10.8 9.6 84 1.3 ESE 7 11 4 6 1017.4 1017.4 0.0
17/03:30am 12.0 10.6 9.4 84 1.3 SE 7 9 4 5 1017.6 1017.6 0.0
17/03:00am 9.5 7.3 7.9 90 0.8 ENE 9 9 5 5 1018.1 1018.0 0.0
17/02:30am 8.9 6.8 6.0 82 1.3 ENE 6 7 3 4 1018.4 1018.3 0.0
17/02:00am 9.6 7.6 6.1 79 1.6 NE 6 9 3 5 1018.6 1018.5 0.0
17/01:30am 11.2 9.0 6.1 71 2.4 ENE 7 11 4 6 1018.9 1018.8 0.0
17/01:00am 12.6 9.3 6.4 66 2.9 ESE 13 24 7 13 1019.1 1019.0 0.0
17/12:30am 11.1 8.6 6.5 73 2.2 ENE 9 13 5 7 1019.5 1019.4 0.0
17/12:00am 14.8 12.5 7.4 61 3.6 SE 9 15 5 8 1019.5 1019.4 0.0
 
Date/Time
EDT
Temp
°C
App
Temp
°C
Dew
Point
°C
Rel
Hum
%
Delta-T
°C
Wind Press
QNH
hPa
Press
MSL
hPa
Rain since
9am
mm
Dir  Spd
km/h
Gust
km/h
Spd
kts
Gust
kts
16/11:30pm 13.0 10.5 6.6 65 3.1 ESE 9 13 5 7 1019.8 1019.7 0.0
16/11:00pm 14.3 10.9 5.9 57 4.0 E 13 20 7 11 1020.0 1019.9 0.0
16/10:30pm 14.7 12.3 6.8 59 3.8 ESE 9 13 5 7 1020.1 1020.0 0.0
16/10:00pm 14.5 12.2 8.9 69 2.8 SE 11 20 6 11 1020.1 1020.0 0.0
16/09:30pm 14.8 12.2 9.2 69 2.9 ESE 13 26 7 14 1020.0 1019.9 0.0
16/09:00pm 14.1 11.7 8.5 69 2.8 ESE 11 17 6 9 1020.0 1019.9 0.0
16/08:30pm 14.3 11.0 8.0 66 3.1 ESE 15 28 8 15 1019.8 1019.7 0.0
16/08:00pm 14.9 10.8 7.9 63 3.5 ESE 19 30 10 16 1019.7 1019.6 0.0
16/07:30pm 15.5 11.2 8.0 61 3.8 SE 20 32 11 17 1019.4 1019.3 0.0
16/07:00pm 16.2 12.0 8.2 59 4.0 ESE 20 35 11 19 1019.2 1019.1 0.0
16/06:30pm 16.9 12.9 8.3 57 4.4 ESE 19 35 10 19 1019.0 1018.9 0.0
16/06:00pm 17.2 12.2 8.1 55 4.6 ESE 24 41 13 22 1019.3 1019.2 0.0
16/05:30pm 17.3 12.9 9.0 58 4.3 ESE 22 39 12 21 1019.1 1019.0 0.0
16/05:00pm 17.7 13.2 8.6 55 4.7 ESE 22 33 12 18 1019.0 1018.9 0.0
16/04:30pm 17.1 12.3 9.0 59 4.2 ESE 24 43 13 23 1019.2 1019.1 0.0
16/04:00pm 18.0 12.7 6.8 48 5.6 SE 24 41 13 22 1019.1 1019.0 0.0
16/03:30pm 18.3 13.5 7.4 49 5.5 ESE 22 39 12 21 1019.1 1019.0 0.0
16/03:00pm 17.7 12.8 8.6 55 4.7 SE 24 44 13 24 1019.3 1019.2 0.0
16/02:30pm 18.2 13.4 9.0 55 4.8 ESE 24 39 13 21 1019.5 1019.4 0.0
16/02:00pm 19.7 14.9 9.0 50 5.6 ESE 24 43 13 23 1019.5 1019.4 0.0
16/01:49pm 18.9 13.4 9.1 53 5.1 ESE 28 48 15 26 1019.4 1019.3 0.0
16/01:30pm 18.8 13.9 8.5 51 5.3 SE 24 39 13 21 1019.4 1019.3 0.0
16/01:00pm 19.2 14.2 9.7 54 5.0 ESE 26 39 14 21 1019.6 1019.5 0.0
16/12:30pm 18.6 13.3 8.3 51 5.3 ESE 26 43 14 23 1019.7 1019.6 0.0
16/12:00pm 18.4 14.4 8.9 54 4.9 ESE 20 37 11 20 1019.7 1019.6 0.0
16/11:30am 17.9 12.3 7.3 50 5.3 ESE 26 39 14 21 1019.7 1019.6 0.0
16/11:00am 18.5 13.7 9.0 54 4.9 SE 24 43 13 23 1019.5 1019.4 0.0
16/10:40am 17.5 11.7 8.1 54 4.8 ESE 28 46 15 25 1019.5 1019.4 0.0
16/10:30am 18.0 12.7 8.6 54 4.9 ESE 26 43 14 23 1019.4 1019.3 0.0
16/10:08am 17.4 11.7 8.3 55 4.7 ESE 28 46 15 25 1019.3 1019.2 0.0
16/10:00am 18.1 13.7 8.9 55 4.8 ESE 22 37 12 20 1019.2 1019.1 0.0
16/09:30am 16.6 12.5 8.8 60 4.0 SE 20 35 11 19 1019.2 1019.1 0.0
16/09:00am 16.1 12.3 9.8 66 3.3 SE 20 33 11 18 1019.1 1019.0 0.2
16/08:30am 15.7 11.6 8.7 63 3.6 SE 20 35 11 19 1019.0 1018.9 0.2
16/08:00am 15.4 11.4 9.1 66 3.2 SE 20 35 11 19 1018.6 1018.5 0.2
16/07:30am 15.1 11.9 8.6 65 3.3 SE 15 28 8 15 1018.2 1018.1 0.2
16/07:00am 15.1 11.7 9.0 67 3.1 SE 17 37 9 20 1017.5 1017.5 0.2
16/06:30am 14.8 11.4 9.0 68 3.0 SE 17 30 9 16 1017.0 1017.0 0.2
16/06:00am 15.3 11.9 9.2 67 3.1 SE 17 37 9 20 1016.6 1016.6 0.2
16/05:30am 15.2 12.0 10.0 71 2.7 SE 17 30 9 16 1016.3 1016.3 0.2
16/05:00am 14.8 11.5 9.4 70 2.8 SE 17 32 9 17 1015.9 1015.9 0.2
16/04:30am 14.9 11.5 9.1 68 3.0 SE 17 28 9 15 1015.7 1015.7 0.2

Other formats

Comma delimited format used in spreadsheet applications
http://www.bom.gov.au/fwo/IDT60801/IDT60801.94980.axf

JavaScript Object Notation format (JSON) in row-major order
http://www.bom.gov.au/fwo/IDT60801/IDT60801.94980.json

Data quality

Most of these data are generated automatically and are frequently updated. Quality checks on data are not normally performed. It is possible for incorrect values to appear. Refer to information at About Latest Weather Observations and please check the disclaimer before using these data.